createdAt,value
2017-06-02T00:00:56.341Z,11.16
2017-06-02T00:03:24.618Z,7.18
2017-06-02T00:05:52.937Z,7.30
2017-06-02T00:08:21.272Z,6.94
2017-06-02T00:10:49.535Z,8.18
2017-06-02T00:13:17.810Z,7.52
2017-06-02T00:15:46.070Z,6.44
2017-06-02T00:18:14.346Z,7.54
2017-06-02T00:20:42.595Z,7.66
2017-06-02T00:23:11.794Z,7.66
2017-06-02T00:25:40.044Z,9.26
2017-06-02T00:28:08.316Z,8.82
2017-06-02T00:30:36.592Z,9.84
2017-06-02T00:33:04.838Z,8.36
2017-06-02T00:35:33.529Z,8.14
2017-06-02T00:38:01.787Z,8.18
2017-06-02T00:40:30.456Z,7.64
2017-06-02T00:42:58.706Z,8.90
2017-06-02T00:45:27.108Z,7.30
2017-06-02T00:47:55.355Z,8.10
2017-06-02T00:50:23.618Z,7.82
2017-06-02T00:52:52.030Z,7.70
2017-06-02T00:55:20.650Z,7.98
2017-06-02T00:57:48.894Z,7.86
2017-06-02T01:00:17.227Z,8.22
2017-06-02T01:02:45.807Z,7.56
2017-06-02T01:05:14.053Z,7.28
2017-06-02T01:07:42.320Z,7.50
2017-06-02T01:10:10.570Z,7.84
2017-06-02T01:12:38.847Z,6.74
2017-06-02T01:15:07.095Z,9.12
2017-06-02T01:17:35.544Z,7.96
2017-06-02T01:20:03.859Z,7.38
2017-06-02T01:22:32.127Z,7.26
2017-06-02T01:25:00.504Z,6.90
2017-06-02T01:27:28.761Z,5.84
2017-06-02T01:29:57.027Z,5.72
2017-06-02T01:32:25.304Z,6.18
2017-06-02T01:34:53.667Z,6.94
2017-06-02T01:37:21.926Z,6.58
2017-06-02T01:39:50.190Z,6.76
2017-06-02T01:42:18.438Z,6.34
2017-06-02T01:44:46.775Z,6.26
2017-06-02T01:47:15.030Z,7.38
2017-06-02T01:49:43.298Z,7.00
2017-06-02T01:52:11.688Z,6.24
2017-06-02T01:54:40.021Z,6.20
2017-06-02T01:57:08.271Z,6.52
2017-06-02T01:59:36.526Z,6.98
2017-06-02T02:02:04.792Z,7.08
2017-06-02T02:04:33.086Z,6.82
2017-06-02T02:07:01.345Z,6.74
2017-06-02T02:09:29.590Z,6.56
2017-06-02T02:11:57.859Z,6.24
2017-06-02T02:14:26.107Z,6.86
2017-06-02T02:16:54.383Z,7.22
2017-06-02T02:19:22.634Z,7.40
2017-06-02T02:21:50.904Z,6.20
2017-06-02T02:24:19.163Z,6.98
2017-06-02T02:26:47.423Z,6.30
2017-06-02T02:29:15.675Z,6.00
2017-06-02T02:31:43.931Z,6.24
2017-06-02T02:34:12.207Z,6.82
2017-06-02T02:36:40.467Z,6.66
2017-06-02T02:39:08.727Z,6.76
2017-06-02T02:41:36.978Z,7.40
2017-06-02T02:44:05.238Z,7.36
2017-06-02T02:46:33.486Z,7.28
2017-06-02T02:49:01.755Z,8.92
2017-06-02T02:51:30.003Z,6.34
2017-06-02T02:53:58.277Z,6.88
2017-06-02T02:56:26.519Z,7.44
2017-06-02T02:58:54.787Z,7.36
2017-06-02T03:01:23.046Z,8.02
2017-06-02T03:03:51.326Z,9.08
2017-06-02T03:06:19.571Z,7.18
2017-06-02T03:08:47.819Z,6.90
2017-06-02T03:11:16.092Z,7.14
2017-06-02T03:13:44.345Z,7.30
2017-06-02T03:16:12.615Z,8.08
2017-06-02T03:18:40.863Z,7.94
2017-06-02T03:21:09.139Z,6.74
2017-06-02T03:23:37.391Z,7.80
2017-06-02T03:26:05.658Z,9.04
2017-06-02T03:28:33.915Z,7.96
2017-06-02T03:31:02.180Z,7.06
2017-06-02T03:33:30.430Z,7.16
2017-06-02T03:35:58.699Z,7.40
2017-06-02T03:38:26.952Z,7.54
2017-06-02T03:40:55.215Z,7.50
2017-06-02T03:43:23.466Z,7.12
2017-06-02T03:45:51.755Z,7.10
2017-06-02T03:48:20.003Z,6.34
2017-06-02T03:50:48.256Z,6.90
2017-06-02T03:53:16.523Z,6.66
2017-06-02T03:55:44.771Z,7.06
2017-06-02T03:58:13.040Z,6.60
2017-06-02T04:00:41.291Z,7.14
2017-06-02T04:03:09.563Z,9.90
2017-06-02T04:05:37.816Z,8.76
2017-06-02T04:08:06.079Z,6.80
2017-06-02T04:10:34.336Z,7.44
2017-06-02T04:13:02.602Z,6.88
2017-06-02T04:15:30.851Z,6.76
2017-06-02T04:17:59.121Z,7.46
2017-06-02T04:20:27.363Z,7.02
2017-06-02T04:22:55.611Z,6.76
2017-06-02T04:25:23.883Z,6.82
2017-06-02T04:27:52.142Z,8.16
2017-06-02T04:30:19.638Z,7.74
2017-06-02T04:32:47.900Z,6.20
2017-06-02T04:35:16.170Z,6.58
2017-06-02T04:37:44.422Z,6.46
2017-06-02T04:40:12.690Z,5.82
2017-06-02T04:42:40.947Z,6.76
2017-06-02T04:45:09.216Z,5.64
2017-06-02T04:47:37.471Z,6.54
2017-06-02T04:50:05.736Z,6.78
2017-06-02T04:52:33.984Z,5.40
2017-06-02T04:55:01.495Z,5.56
2017-06-02T04:57:29.747Z,6.06
2017-06-02T04:59:58.006Z,10.10
2017-06-02T05:02:26.267Z,5.82
2017-06-02T05:04:54.522Z,5.76
2017-06-02T05:07:22.786Z,5.82
2017-06-02T05:09:51.038Z,5.16
2017-06-02T05:12:19.308Z,5.76
2017-06-02T05:14:47.570Z,5.44
2017-06-02T05:17:15.849Z,7.20
2017-06-02T05:19:44.090Z,5.62
2017-06-02T05:22:12.374Z,5.98
2017-06-02T05:24:40.630Z,6.76
2017-06-02T05:27:08.904Z,5.66
2017-06-02T05:29:37.154Z,4.76
2017-06-02T05:32:05.422Z,6.50
2017-06-02T05:34:34.102Z,7.58
2017-06-02T05:37:02.356Z,6.30
2017-06-02T05:39:30.623Z,5.84
2017-06-02T05:41:58.877Z,6.48
2017-06-02T05:44:27.147Z,6.70
2017-06-02T05:46:55.404Z,5.84
2017-06-02T05:49:23.668Z,5.98
2017-06-02T05:51:51.961Z,6.08
2017-06-02T05:54:20.228Z,6.68
2017-06-02T05:56:48.476Z,6.36
2017-06-02T05:59:16.739Z,6.26
2017-06-02T06:01:44.987Z,9.88
2017-06-02T06:04:13.243Z,6.16
2017-06-02T06:06:41.518Z,8.22
2017-06-02T06:09:09.770Z,6.04
2017-06-02T06:11:38.031Z,5.06
2017-06-02T06:14:06.283Z,7.44
2017-06-02T06:16:34.547Z,5.98
2017-06-02T06:19:02.803Z,9.08
2017-06-02T06:21:31.064Z,7.94
2017-06-02T06:23:59.303Z,8.44
2017-06-02T06:26:27.566Z,5.72
2017-06-02T06:28:55.818Z,6.74
2017-06-02T06:31:24.084Z,6.06
2017-06-02T06:33:52.337Z,5.90
2017-06-02T06:36:20.598Z,5.32
2017-06-02T06:38:48.850Z,5.46
2017-06-02T06:41:17.118Z,6.94
2017-06-02T06:43:45.391Z,6.42
2017-06-02T06:46:13.651Z,5.94
2017-06-02T06:48:41.926Z,13.62
2017-06-02T06:51:10.171Z,9.58
2017-06-02T06:53:38.431Z,6.82
2017-06-02T06:56:06.679Z,7.38
2017-06-02T06:58:34.958Z,10.62
2017-06-02T07:01:03.207Z,6.62
2017-06-02T07:03:31.466Z,9.00
2017-06-02T07:06:00.623Z,7.88
2017-06-02T07:08:28.897Z,6.52
2017-06-02T07:10:57.153Z,13.44
2017-06-02T07:13:25.438Z,10.46
2017-06-02T07:15:53.686Z,8.38
2017-06-02T07:18:21.960Z,7.76
2017-06-02T07:20:50.227Z,9.56
2017-06-02T07:23:18.474Z,11.80
2017-06-02T07:25:46.742Z,8.14
2017-06-02T07:28:14.991Z,8.76
2017-06-02T07:30:43.255Z,8.22
2017-06-02T07:33:11.499Z,7.50
2017-06-02T07:35:39.763Z,7.80
2017-06-02T07:38:08.007Z,9.30
2017-06-02T07:40:36.279Z,10.26
2017-06-02T07:43:04.526Z,10.70
2017-06-02T07:45:32.787Z,9.02
2017-06-02T07:48:01.047Z,12.14
2017-06-02T07:50:29.322Z,11.00
2017-06-02T07:52:57.562Z,8.98
2017-06-02T07:55:25.832Z,10.08
2017-06-02T07:57:54.106Z,11.44
2017-06-02T08:00:22.356Z,11.22
2017-06-02T08:02:50.618Z,10.32
2017-06-02T08:05:18.867Z,8.22
2017-06-02T08:07:47.154Z,10.38
2017-06-02T08:10:15.398Z,9.40
2017-06-02T08:12:43.663Z,8.76
2017-06-02T08:15:11.911Z,8.52
2017-06-02T08:17:40.179Z,11.66
2017-06-02T08:20:08.438Z,7.16
2017-06-02T08:22:36.692Z,10.02
2017-06-02T08:25:04.960Z,8.92
2017-06-02T08:27:33.246Z,8.62
2017-06-02T08:30:01.511Z,9.48
2017-06-02T08:32:29.759Z,8.02
2017-06-02T08:34:58.031Z,11.22
2017-06-02T08:37:26.270Z,8.02
2017-06-02T08:39:54.526Z,9.82
2017-06-02T08:42:22.809Z,7.86
2017-06-02T08:44:51.070Z,8.02
2017-06-02T08:47:19.319Z,6.66
2017-06-02T08:49:47.591Z,7.06
2017-06-02T08:52:15.844Z,6.38
2017-06-02T08:54:44.134Z,6.84
2017-06-02T08:57:12.388Z,6.18
2017-06-02T08:59:40.636Z,6.22
2017-06-02T09:02:08.900Z,9.02
2017-06-02T09:04:37.146Z,6.00
2017-06-02T09:07:04.646Z,7.52
2017-06-02T09:09:32.894Z,6.06
2017-06-02T09:12:01.175Z,6.02
2017-06-02T09:14:29.456Z,5.62
2017-06-02T09:16:57.722Z,6.84
2017-06-02T09:19:25.963Z,4.74
2017-06-02T09:21:54.231Z,6.12
2017-06-02T09:24:22.483Z,6.80
2017-06-02T09:26:50.775Z,6.76
2017-06-02T09:29:19.014Z,5.44
2017-06-02T09:31:47.277Z,5.54
2017-06-02T09:34:15.655Z,6.58
2017-06-02T09:36:43.915Z,5.62
2017-06-02T09:39:12.162Z,5.78
2017-06-02T09:41:40.491Z,4.72
2017-06-02T09:44:08.744Z,5.12
2017-06-02T09:46:37.119Z,8.32
2017-06-02T09:49:05.391Z,5.32
2017-06-02T09:51:33.662Z,5.02
2017-06-02T09:54:01.912Z,4.90
2017-06-02T09:56:30.175Z,5.30
2017-06-02T09:58:58.429Z,4.72
2017-06-02T10:01:28.646Z,3.88
2017-06-02T10:03:58.223Z,4.88
2017-06-02T10:06:26.480Z,4.30
2017-06-02T10:08:54.749Z,5.08
2017-06-02T10:11:22.999Z,4.48
2017-06-02T10:13:51.279Z,4.16
2017-06-02T10:16:19.522Z,4.70
2017-06-02T10:18:47.787Z,4.40
2017-06-02T10:21:16.039Z,4.54
2017-06-02T10:23:44.303Z,4.20
2017-06-02T10:26:13.149Z,5.80
2017-06-02T10:28:41.414Z,4.10
2017-06-02T10:31:09.661Z,4.52
2017-06-02T10:33:37.926Z,4.56
2017-06-02T10:36:06.175Z,4.64
2017-06-02T10:38:34.456Z,4.48
2017-06-02T10:41:02.719Z,3.46
2017-06-02T10:43:30.974Z,4.38
2017-06-02T10:45:59.239Z,5.06
2017-06-02T10:48:27.487Z,4.76
2017-06-02T10:50:55.799Z,5.66
2017-06-02T10:53:24.055Z,4.34
2017-06-02T10:55:52.314Z,4.36
2017-06-02T10:58:21.131Z,4.20
2017-06-02T11:00:49.406Z,4.68
2017-06-02T11:03:17.659Z,7.08
2017-06-02T11:05:45.948Z,6.46
2017-06-02T11:08:14.210Z,4.32
2017-06-02T11:10:42.502Z,5.18
2017-06-02T11:13:10.753Z,5.50
2017-06-02T11:15:39.003Z,4.76
2017-06-02T11:18:07.267Z,4.82
2017-06-02T11:20:35.522Z,5.36
2017-06-02T11:23:03.783Z,4.66
2017-06-02T11:25:32.031Z,4.18
2017-06-02T11:28:00.298Z,4.90
2017-06-02T11:30:28.543Z,5.16
2017-06-02T11:32:56.808Z,4.52
2017-06-02T11:38:28.456Z,4.47
2017-06-02T11:40:55.934Z,5.50
2017-06-02T11:43:24.193Z,5.00
2017-06-02T11:45:52.427Z,5.13
2017-06-02T11:48:19.911Z,5.10
2017-06-02T11:50:48.159Z,5.40
2017-06-02T11:53:15.651Z,5.27
2017-06-02T11:55:43.894Z,5.10
2017-06-02T11:58:11.361Z,5.50
2017-06-02T12:00:38.861Z,5.83
2017-06-02T12:03:06.334Z,5.53
2017-06-02T12:05:33.830Z,6.77
2017-06-02T12:08:02.088Z,5.47
2017-06-02T12:10:29.571Z,5.87
2017-06-02T12:12:57.815Z,5.50
2017-06-02T12:15:25.314Z,6.00
2017-06-02T12:17:52.806Z,6.70
2017-06-02T12:20:20.313Z,5.43
2017-06-02T12:22:47.795Z,5.60
2017-06-02T12:25:15.293Z,6.30
2017-06-02T12:27:42.786Z,6.80
2017-06-02T12:30:10.264Z,6.00
2017-06-02T12:32:37.766Z,6.10
2017-06-02T12:35:05.249Z,6.00
2017-06-02T12:37:32.742Z,5.60
2017-06-02T12:40:00.222Z,6.03
2017-06-02T12:42:27.714Z,6.57
2017-06-02T12:44:55.191Z,6.10
2017-06-02T12:47:22.706Z,7.00
2017-06-02T12:49:50.959Z,6.20
2017-06-02T12:52:18.462Z,6.47
2017-06-02T12:54:45.942Z,6.07
2017-06-02T12:57:13.425Z,5.67
2017-06-02T12:59:40.923Z,6.60
2017-06-02T13:02:08.402Z,6.20
2017-06-02T13:04:35.892Z,6.20
2017-06-02T13:07:03.362Z,6.03
2017-06-02T13:09:31.620Z,6.30
2017-06-02T13:11:59.088Z,6.03
2017-06-02T13:14:27.349Z,5.83
2017-06-02T13:16:54.826Z,6.47
2017-06-02T13:19:23.074Z,6.53
2017-06-02T13:21:50.543Z,6.83
2017-06-02T13:24:18.022Z,7.17
2017-06-02T13:26:45.524Z,7.10
2017-06-02T13:29:13.011Z,8.37
2017-06-02T13:31:41.249Z,7.33
2017-06-02T13:34:08.750Z,7.87
2017-06-02T13:36:36.216Z,7.70
2017-06-02T13:39:03.699Z,7.40
2017-06-02T13:41:31.191Z,7.83
2017-06-02T13:43:59.454Z,6.73
2017-06-02T13:46:26.965Z,7.63
2017-06-02T13:48:54.543Z,7.67
2017-06-02T13:51:22.050Z,6.73
2017-06-02T13:53:49.543Z,7.37
2017-06-02T13:56:17.017Z,9.77
2017-06-02T13:58:44.521Z,6.40
2017-06-02T14:01:11.995Z,6.77
2017-06-02T14:03:39.485Z,8.47
2017-06-02T14:06:06.979Z,7.70
2017-06-02T14:08:34.503Z,7.47
2017-06-02T14:11:01.983Z,7.33
2017-06-02T14:13:30.229Z,7.40
2017-06-02T14:15:57.718Z,7.87
2017-06-02T14:18:25.191Z,7.67
2017-06-02T14:20:52.713Z,6.60
2017-06-02T14:23:20.947Z,7.97
2017-06-02T14:25:48.419Z,7.93
2017-06-02T14:28:15.926Z,7.13
2017-06-02T14:30:43.402Z,7.00
2017-06-02T14:33:10.898Z,8.10
2017-06-02T14:35:39.149Z,8.00
2017-06-02T14:38:06.647Z,8.00
2017-06-02T14:40:34.123Z,7.20
2017-06-02T14:43:01.614Z,7.37
2017-06-02T14:45:29.093Z,7.73
2017-06-02T14:47:57.375Z,11.63
2017-06-02T14:50:25.623Z,7.63
2017-06-02T14:52:53.105Z,8.60
2017-06-02T14:55:20.618Z,7.50
2017-06-02T14:57:48.098Z,7.07
2017-06-02T15:00:16.358Z,8.20
2017-06-02T15:02:43.843Z,9.40
2017-06-02T15:05:11.348Z,7.40
2017-06-02T15:07:38.830Z,8.07
2017-06-02T15:10:07.103Z,7.17
2017-06-02T15:12:34.580Z,7.60
2017-06-02T15:15:02.814Z,8.53
2017-06-02T15:17:30.299Z,6.90
2017-06-02T15:19:57.785Z,7.30
2017-06-02T15:22:25.274Z,7.07
2017-06-02T15:24:52.751Z,6.77
2017-06-02T15:27:20.268Z,6.93
2017-06-02T15:29:47.748Z,6.70
2017-06-02T15:32:15.224Z,6.03
2017-06-02T15:34:43.474Z,7.40
2017-06-02T15:37:10.947Z,7.30
2017-06-02T15:39:39.199Z,7.00
2017-06-02T15:42:06.668Z,7.43
2017-06-02T15:44:34.163Z,8.87
2017-06-02T15:47:01.695Z,6.53
2017-06-02T15:49:29.918Z,6.77
2017-06-02T15:51:57.407Z,7.40
2017-06-02T15:54:25.651Z,7.17
2017-06-02T15:56:53.142Z,7.10
2017-06-02T15:59:21.374Z,7.40
2017-06-02T16:01:48.859Z,7.20
2017-06-02T16:04:17.100Z,6.80
2017-06-02T16:06:44.616Z,6.63
2017-06-02T16:09:12.096Z,6.50
2017-06-02T16:11:39.571Z,6.77
2017-06-02T16:14:07.064Z,6.30
2017-06-02T16:16:34.543Z,8.07
2017-06-02T16:19:02.031Z,6.90
2017-06-02T16:21:29.499Z,6.70
2017-06-02T16:23:56.984Z,7.13
2017-06-02T16:26:24.455Z,6.13
2017-06-02T16:28:51.941Z,7.40
2017-06-02T16:31:19.422Z,6.93
2017-06-02T16:33:46.915Z,9.80
2017-06-02T16:36:14.410Z,8.90
2017-06-02T16:38:41.884Z,7.47
2017-06-02T16:41:09.367Z,8.60
2017-06-02T16:43:37.607Z,8.50
2017-06-02T16:46:05.107Z,7.40
2017-06-02T16:48:32.584Z,9.03
2017-06-02T16:51:00.081Z,8.23
2017-06-02T16:53:27.556Z,8.50
2017-06-02T16:55:55.070Z,9.13
2017-06-02T16:58:22.550Z,8.03
2017-06-02T17:00:50.788Z,7.37
2017-06-02T17:03:18.279Z,8.53
2017-06-02T17:05:46.531Z,7.40
2017-06-02T17:08:14.018Z,6.60
2017-06-02T17:10:41.499Z,7.23
2017-06-02T17:13:09.015Z,7.23
2017-06-02T17:15:37.268Z,8.50
2017-06-02T17:18:04.766Z,8.90
2017-06-02T17:20:32.256Z,8.50
2017-06-02T17:22:59.750Z,9.13
2017-06-02T17:25:27.995Z,8.80
2017-06-02T17:27:55.496Z,10.93
2017-06-02T17:30:22.974Z,9.30
2017-06-02T17:32:50.471Z,9.50
2017-06-02T17:35:17.967Z,8.80
2017-06-02T17:37:45.498Z,9.27
2017-06-02T17:40:13.741Z,10.13
2017-06-02T17:42:41.279Z,9.83
2017-06-02T17:45:08.745Z,8.87
2017-06-02T17:47:36.218Z,8.27
2017-06-02T17:50:03.707Z,9.70
2017-06-02T17:52:31.183Z,8.67
2017-06-02T17:54:58.679Z,8.40
2017-06-02T17:57:26.183Z,8.50
2017-06-02T17:59:53.690Z,9.40
2017-06-02T18:02:21.160Z,9.07
2017-06-02T18:04:49.414Z,9.80
2017-06-02T18:07:16.906Z,9.00
2017-06-02T18:09:44.383Z,9.03
2017-06-02T18:12:11.875Z,9.07
2017-06-02T18:14:39.350Z,7.63
2017-06-02T18:17:06.874Z,8.50
2017-06-02T18:19:34.350Z,7.83
2017-06-02T18:22:01.823Z,8.53
2017-06-02T18:24:30.079Z,7.93
2017-06-02T18:26:57.548Z,7.40
2017-06-02T18:29:25.811Z,8.43
2017-06-02T18:31:53.291Z,8.70
2017-06-02T18:34:20.786Z,8.13
2017-06-02T18:36:48.263Z,8.83
2017-06-02T18:39:15.742Z,8.57
2017-06-02T18:41:44.005Z,10.50
2017-06-02T18:44:11.506Z,7.97
2017-06-02T18:46:38.999Z,9.30
2017-06-02T18:49:06.478Z,9.13
2017-06-02T18:51:34.746Z,9.23
2017-06-02T18:54:02.986Z,8.73
2017-06-02T18:56:30.463Z,8.27
2017-06-02T18:58:57.946Z,8.23
2017-06-02T19:01:25.421Z,8.53
2017-06-02T19:03:52.930Z,8.30
2017-06-02T19:06:20.407Z,10.17
2017-06-02T19:08:47.874Z,9.63
2017-06-02T19:11:15.366Z,8.93
2017-06-02T19:13:42.867Z,8.20
2017-06-02T19:16:11.118Z,8.80
2017-06-02T19:18:38.590Z,9.40
2017-06-02T19:21:06.847Z,8.37
2017-06-02T19:23:34.323Z,8.90
2017-06-02T19:26:01.812Z,10.00
2017-06-02T19:28:29.290Z,9.73
2017-06-02T19:30:56.779Z,7.33
2017-06-02T19:33:25.022Z,8.67
2017-06-02T19:35:52.521Z,8.43
2017-06-02T19:38:19.997Z,8.03
2017-06-02T19:40:47.474Z,8.23
2017-06-02T19:43:14.958Z,8.57
2017-06-02T19:45:43.207Z,9.17
2017-06-02T19:48:10.692Z,9.10
2017-06-02T19:50:38.935Z,9.87
2017-06-02T19:53:06.447Z,9.10
2017-06-02T19:55:33.915Z,9.37
2017-06-02T19:58:01.395Z,8.37
2017-06-02T20:00:28.887Z,8.20
2017-06-02T20:02:57.131Z,8.40
2017-06-02T20:05:24.628Z,8.87
2017-06-02T20:07:52.158Z,7.73
2017-06-02T20:10:19.667Z,8.70
2017-06-02T20:12:47.146Z,8.87
2017-06-02T20:15:14.627Z,9.27
2017-06-02T20:17:42.890Z,7.93
2017-06-02T20:20:10.366Z,8.40
2017-06-02T20:22:37.864Z,9.40
2017-06-02T20:25:05.339Z,8.23
2017-06-02T20:27:32.847Z,10.33
2017-06-02T20:30:00.323Z,9.40
2017-06-02T20:32:27.796Z,9.80
2017-06-02T20:34:55.303Z,9.30
2017-06-02T20:37:22.776Z,9.83
2017-06-02T20:39:50.271Z,9.73
2017-06-02T20:42:17.743Z,10.80
2017-06-02T20:44:45.981Z,9.27
2017-06-02T20:47:13.470Z,9.57
2017-06-02T20:49:41.723Z,9.63
2017-06-02T20:52:09.216Z,11.07
2017-06-02T20:54:36.727Z,10.67
2017-06-02T20:57:04.206Z,12.70
2017-06-02T20:59:32.466Z,11.60
2017-06-02T21:01:59.943Z,12.60
2017-06-02T21:04:28.218Z,10.30
2017-06-02T21:06:56.462Z,11.10
2017-06-02T21:09:23.959Z,11.90
2017-06-02T21:11:51.442Z,12.63
2017-06-02T21:14:18.939Z,12.57
2017-06-02T21:16:46.418Z,12.33
2017-06-02T21:19:13.921Z,11.90
2017-06-02T21:21:41.419Z,11.60
2017-06-02T21:24:09.666Z,12.40
2017-06-02T21:26:37.167Z,11.57
2017-06-02T21:29:04.644Z,10.87
2017-06-02T21:31:32.148Z,12.23
2017-06-02T21:33:59.630Z,11.13
2017-06-02T21:36:27.126Z,10.73
2017-06-02T21:38:54.610Z,11.70
2017-06-02T21:41:22.871Z,10.83
2017-06-02T21:43:50.342Z,9.87
2017-06-02T21:46:18.607Z,10.37
2017-06-02T21:48:46.850Z,9.07
2017-06-02T21:51:14.351Z,11.47
2017-06-02T21:53:41.830Z,10.40
2017-06-02T21:56:09.307Z,9.90
2017-06-02T21:58:36.799Z,10.60
2017-06-02T22:01:05.041Z,9.00
2017-06-02T22:03:32.530Z,10.40
2017-06-02T22:06:00.775Z,10.27
2017-06-02T22:08:28.274Z,10.43
2017-06-02T22:10:55.747Z,9.30
2017-06-02T22:13:23.243Z,8.87
2017-06-02T22:15:50.714Z,9.00
2017-06-02T22:18:18.975Z,9.07
2017-06-02T22:20:46.447Z,9.00
2017-06-02T22:23:14.728Z,9.23
2017-06-02T22:25:42.975Z,10.20
2017-06-02T22:28:10.446Z,8.70
2017-06-02T22:30:38.703Z,10.10
2017-06-02T22:33:06.174Z,8.70
2017-06-02T22:35:33.924Z,8.23
2017-06-02T22:38:01.394Z,8.50
2017-06-02T22:40:29.646Z,9.13
2017-06-02T22:42:57.121Z,8.40
2017-06-02T22:45:24.611Z,9.90
2017-06-02T22:47:52.079Z,10.60
2017-06-02T22:50:19.578Z,9.50
2017-06-02T22:52:47.827Z,10.57
2017-06-02T22:55:15.302Z,10.73
2017-06-02T22:57:42.803Z,10.47
2017-06-02T23:00:10.275Z,10.37
2017-06-02T23:02:37.778Z,11.10
2017-06-02T23:05:06.024Z,11.67
2017-06-02T23:07:33.527Z,12.80
2017-06-02T23:10:01.014Z,11.53
2017-06-02T23:12:28.516Z,12.27
2017-06-02T23:14:56.006Z,12.50
2017-06-02T23:17:23.503Z,12.83
2017-06-02T23:19:50.986Z,14.00
2017-06-02T23:22:18.506Z,13.97
2017-06-02T23:24:45.986Z,13.50
2017-06-02T23:27:14.230Z,12.63
2017-06-02T23:29:41.732Z,13.20
2017-06-02T23:32:09.219Z,12.50
2017-06-02T23:34:36.714Z,12.93
2017-06-02T23:37:04.965Z,13.63
2017-06-02T23:39:32.464Z,13.03
2017-06-02T23:41:59.958Z,13.20
2017-06-02T23:44:27.454Z,12.70
2017-06-02T23:46:55.703Z,13.43
2017-06-02T23:49:23.203Z,11.87
2017-06-02T23:51:50.683Z,13.63
2017-06-02T23:54:18.202Z,12.40
2017-06-02T23:56:45.693Z,13.07
2017-06-02T23:59:13.170Z,13.93
